Terminal Aerodrome Forecast
Issued by NWS

Home | Current Version | Previous Version | Text Only | Print | Product List | Glossary On
Versions: 1 2 3 4 5 6 7 8 9 10 11 12 13 14 15 16 17 18 19 20 21
000
FTUS41 KBTV 210435 AAA
TAFSLK
TAF AMD
KSLK 210435Z 2105/2124 VRB03KT P6SM SCT004 OVC014
      TEMPO 2105/2106 BKN004 OVC012
     FM210600 VRB03KT 4SM BR OVC004
     FM210900 VRB03KT 3SM BR VCSH SCT003 OVC005
      TEMPO 2110/2114 1SM -FZDZ BKN003 OVC005
     FM211500 24005KT 5SM BR SCT005 OVC010=

USA.gov is the U.S. government's official web portal to all federal, state and local government web resources and services.